sensor_id;sensor_type;location;lat;lon;timestamp;P1;durP1;ratioP1;P2;durP2;ratioP2
23496;SDS011;11925;48.122;11.560;2024-03-23T00:53:31;4.60;;;3.22;;
23496;SDS011;11925;48.122;11.560;2024-03-23T00:55:59;5.13;;;3.00;;
23496;SDS011;11925;48.122;11.560;2024-03-23T00:58:27;4.30;;;2.55;;
23496;SDS011;11925;48.122;11.560;2024-03-23T01:00:53;3.13;;;2.13;;
23496;SDS011;11925;48.122;11.560;2024-03-23T01:03:21;3.60;;;2.47;;
23496;SDS011;11925;48.122;11.560;2024-03-23T01:05:47;3.47;;;2.25;;
23496;SDS011;11925;48.122;11.560;2024-03-23T01:08:15;4.65;;;2.25;;
23496;SDS011;11925;48.122;11.560;2024-03-23T01:10:43;4.03;;;2.20;;
23496;SDS011;11925;48.122;11.560;2024-03-23T01:13:21;3.25;;;1.90;;
23496;SDS011;11925;48.122;11.560;2024-03-23T01:15:48;2.83;;;1.70;;
23496;SDS011;11925;48.122;11.560;2024-03-23T01:18:17;3.28;;;1.65;;
23496;SDS011;11925;48.122;11.560;2024-03-23T01:20:44;2.50;;;1.60;;
23496;SDS011;11925;48.122;11.560;2024-03-23T01:23:12;2.85;;;1.45;;
23496;SDS011;11925;48.122;11.560;2024-03-23T01:25:39;3.20;;;1.73;;
23496;SDS011;11925;48.122;11.560;2024-03-23T01:28:08;4.65;;;1.75;;
23496;SDS011;11925;48.122;11.560;2024-03-23T01:30:35;2.40;;;1.70;;
23496;SDS011;11925;48.122;11.560;2024-03-23T01:33:03;2.80;;;1.50;;
23496;SDS011;11925;48.122;11.560;2024-03-23T01:35:30;3.45;;;1.60;;
23496;SDS011;11925;48.122;11.560;2024-03-23T01:37:57;3.03;;;1.70;;
23496;SDS011;11925;48.122;11.560;2024-03-23T01:40:24;2.97;;;1.67;;
23496;SDS011;11925;48.122;11.560;2024-03-23T01:42:57;2.50;;;1.60;;
23496;SDS011;11925;48.122;11.560;2024-03-23T01:45:25;3.13;;;1.73;;
23496;SDS011;11925;48.122;11.560;2024-03-23T01:47:53;2.60;;;1.70;;
23496;SDS011;11925;48.122;11.560;2024-03-23T01:50:20;3.17;;;1.40;;
23496;SDS011;11925;48.122;11.560;2024-03-23T01:52:49;2.42;;;1.70;;
23496;SDS011;11925;48.122;11.560;2024-03-23T01:55:16;2.42;;;1.60;;
23496;SDS011;11925;48.122;11.560;2024-03-23T01:57:44;1.92;;;1.33;;
23496;SDS011;11925;48.122;11.560;2024-03-23T02:00:11;3.08;;;1.58;;
23496;SDS011;11925;48.122;11.560;2024-03-23T02:02:44;3.45;;;1.60;;
23496;SDS011;11925;48.122;11.560;2024-03-23T02:05:11;3.88;;;1.40;;
23496;SDS011;11925;48.122;11.560;2024-03-23T02:07:39;3.92;;;1.40;;
23496;SDS011;11925;48.122;11.560;2024-03-23T02:10:07;2.50;;;1.40;;
23496;SDS011;11925;48.122;11.560;2024-03-23T02:12:35;2.33;;;1.30;;
23496;SDS011;11925;48.122;11.560;2024-03-23T02:15:02;4.00;;;1.40;;
23496;SDS011;11925;48.122;11.560;2024-03-23T02:17:31;2.53;;;1.35;;
23496;SDS011;11925;48.122;11.560;2024-03-23T02:20:00;2.53;;;1.27;;
23496;SDS011;11925;48.122;11.560;2024-03-23T02:22:35;2.78;;;1.27;;
23496;SDS011;11925;48.122;11.560;2024-03-23T02:25:03;2.72;;;1.27;;
23496;SDS011;11925;48.122;11.560;2024-03-23T02:27:31;2.10;;;1.52;;
23496;SDS011;11925;48.122;11.560;2024-03-23T02:29:58;2.33;;;1.40;;
23496;SDS011;11925;48.122;11.560;2024-03-23T02:32:26;2.33;;;1.50;;
23496;SDS011;11925;48.122;11.560;2024-03-23T02:34:53;2.30;;;1.23;;
23496;SDS011;11925;48.122;11.560;2024-03-23T02:37:21;3.17;;;1.17;;
23496;SDS011;11925;48.122;11.560;2024-03-23T02:39:48;2.13;;;1.40;;
23496;SDS011;11925;48.122;11.560;2024-03-23T02:42:17;3.15;;;1.63;;
23496;SDS011;11925;48.122;11.560;2024-03-23T02:44:44;3.40;;;1.73;;
23496;SDS011;11925;48.122;11.560;2024-03-23T02:47:12;3.03;;;1.83;;
23496;SDS011;11925;48.122;11.560;2024-03-23T02:49:39;3.40;;;1.88;;
23496;SDS011;11925;48.122;11.560;2024-03-23T02:52:07;4.72;;;2.03;;
23496;SDS011;11925;48.122;11.560;2024-03-23T02:54:33;2.72;;;1.67;;
23496;SDS011;11925;48.122;11.560;2024-03-23T02:57:01;5.13;;;2.22;;
23496;SDS011;11925;48.122;11.560;2024-03-23T02:59:30;3.10;;;1.90;;
23496;SDS011;11925;48.122;11.560;2024-03-23T03:01:58;3.05;;;1.88;;
23496;SDS011;11925;48.122;11.560;2024-03-23T03:04:25;3.85;;;1.70;;
23496;SDS011;11925;48.122;11.560;2024-03-23T03:06:53;8.40;;;2.67;;
23496;SDS011;11925;48.122;11.560;2024-03-23T03:09:20;3.90;;;2.08;;
23496;SDS011;11925;48.122;11.560;2024-03-23T03:11:48;3.45;;;2.13;;
23496;SDS011;11925;48.122;11.560;2024-03-23T03:14:15;3.30;;;1.77;;
23496;SDS011;11925;48.122;11.560;2024-03-23T03:16:44;3.47;;;2.00;;
23496;SDS011;11925;48.122;11.560;2024-03-23T03:19:11;4.85;;;2.10;;
23496;SDS011;11925;48.122;11.560;2024-03-23T03:21:38;3.80;;;2.30;;
23496;SDS011;11925;48.122;11.560;2024-03-23T03:24:06;2.60;;;1.83;;
23496;SDS011;11925;48.122;11.560;2024-03-23T03:26:34;3.25;;;1.92;;
23496;SDS011;11925;48.122;11.560;2024-03-23T03:29:01;2.97;;;1.83;;
23496;SDS011;11925;48.122;11.560;2024-03-23T03:31:28;4.05;;;2.03;;
23496;SDS011;11925;48.122;11.560;2024-03-23T03:33:57;2.75;;;1.70;;
23496;SDS011;11925;48.122;11.560;2024-03-23T03:36:24;2.75;;;2.03;;
23496;SDS011;11925;48.122;11.560;2024-03-23T03:38:51;3.22;;;1.95;;
23496;SDS011;11925;48.122;11.560;2024-03-23T03:41:19;4.78;;;2.08;;
23496;SDS011;11925;48.122;11.560;2024-03-23T03:43:46;3.40;;;2.00;;
23496;SDS011;11925;48.122;11.560;2024-03-23T03:46:14;4.68;;;2.10;;
23496;SDS011;11925;48.122;11.560;2024-03-23T03:48:41;2.85;;;1.80;;
23496;SDS011;11925;48.122;11.560;2024-03-23T03:51:12;3.75;;;2.35;;
23496;SDS011;11925;48.122;11.560;2024-03-23T03:53:38;3.97;;;2.22;;
23496;SDS011;11925;48.122;11.560;2024-03-23T03:56:06;4.45;;;2.17;;
23496;SDS011;11925;48.122;11.560;2024-03-23T03:58:33;4.40;;;2.15;;
23496;SDS011;11925;48.122;11.560;2024-03-23T04:01:01;4.60;;;1.83;;
23496;SDS011;11925;48.122;11.560;2024-03-23T04:03:28;4.10;;;2.38;;
23496;SDS011;11925;48.122;11.560;2024-03-23T04:05:55;3.50;;;1.90;;
23496;SDS011;11925;48.122;11.560;2024-03-23T04:08:24;3.25;;;2.20;;
23496;SDS011;11925;48.122;11.560;2024-03-23T04:10:52;4.13;;;2.20;;
23496;SDS011;11925;48.122;11.560;2024-03-23T04:13:19;2.95;;;1.90;;
23496;SDS011;11925;48.122;11.560;2024-03-23T04:15:47;3.22;;;1.90;;
23496;SDS011;11925;48.122;11.560;2024-03-23T04:18:13;4.38;;;1.98;;
23496;SDS011;11925;48.122;11.560;2024-03-23T04:20:41;3.40;;;2.00;;
23496;SDS011;11925;48.122;11.560;2024-03-23T04:23:08;3.15;;;2.05;;
23496;SDS011;11925;48.122;11.560;2024-03-23T04:25:37;3.83;;;1.80;;
23496;SDS011;11925;48.122;11.560;2024-03-23T04:28:04;4.28;;;2.10;;
23496;SDS011;11925;48.122;11.560;2024-03-23T04:30:32;3.17;;;1.90;;
23496;SDS011;11925;48.122;11.560;2024-03-23T04:32:59;3.28;;;1.90;;
23496;SDS011;11925;48.122;11.560;2024-03-23T04:35:27;4.85;;;2.13;;
23496;SDS011;11925;48.122;11.560;2024-03-23T04:37:54;4.00;;;2.25;;
23496;SDS011;11925;48.122;11.560;2024-03-23T04:40:24;4.00;;;2.10;;
23496;SDS011;11925;48.122;11.560;2024-03-23T04:42:53;3.25;;;1.38;;
23496;SDS011;11925;48.122;11.560;2024-03-23T04:45:21;2.70;;;1.60;;
23496;SDS011;11925;48.122;11.560;2024-03-23T04:47:49;2.80;;;1.70;;
23496;SDS011;11925;48.122;11.560;2024-03-23T04:50:17;2.72;;;1.60;;
23496;SDS011;11925;48.122;11.560;2024-03-23T04:52:44;3.05;;;1.50;;
23496;SDS011;11925;48.122;11.560;2024-03-23T04:55:12;3.30;;;1.80;;
23496;SDS011;11925;48.122;11.560;2024-03-23T04:57:41;2.83;;;1.80;;
23496;SDS011;11925;48.122;11.560;2024-03-23T05:00:10;3.20;;;1.50;;
23496;SDS011;11925;48.122;11.560;2024-03-23T05:02:43;3.08;;;1.80;;
23496;SDS011;11925;48.122;11.560;2024-03-23T05:05:10;3.38;;;1.50;;
23496;SDS011;11925;48.122;11.560;2024-03-23T05:07:38;2.95;;;1.73;;
23496;SDS011;11925;48.122;11.560;2024-03-23T05:10:05;2.95;;;1.60;;
23496;SDS011;11925;48.122;11.560;2024-03-23T05:12:36;1.73;;;1.40;;
23496;SDS011;11925;48.122;11.560;2024-03-23T05:15:03;2.50;;;1.33;;
23496;SDS011;11925;48.122;11.560;2024-03-23T05:17:32;2.65;;;1.60;;
23496;SDS011;11925;48.122;11.560;2024-03-23T05:19:59;2.28;;;1.60;;
23496;SDS011;11925;48.122;11.560;2024-03-23T05:22:28;2.15;;;1.58;;
23496;SDS011;11925;48.122;11.560;2024-03-23T05:24:54;2.70;;;1.60;;
23496;SDS011;11925;48.122;11.560;2024-03-23T05:27:22;2.25;;;1.40;;
23496;SDS011;11925;48.122;11.560;2024-03-23T05:29:49;3.80;;;1.50;;
23496;SDS011;11925;48.122;11.560;2024-03-23T05:32:17;2.20;;;1.45;;
23496;SDS011;11925;48.122;11.560;2024-03-23T05:34:45;2.65;;;1.45;;
23496;SDS011;11925;48.122;11.560;2024-03-23T05:37:13;3.05;;;1.40;;
23496;SDS011;11925;48.122;11.560;2024-03-23T05:39:40;3.42;;;1.50;;
23496;SDS011;11925;48.122;11.560;2024-03-23T05:42:08;2.00;;;1.30;;
23496;SDS011;11925;48.122;11.560;2024-03-23T05:44:34;2.78;;;1.20;;
23496;SDS011;11925;48.122;11.560;2024-03-23T05:47:03;4.05;;;1.67;;
23496;SDS011;11925;48.122;11.560;2024-03-23T05:49:30;3.40;;;1.52;;
23496;SDS011;11925;48.122;11.560;2024-03-23T05:51:59;2.25;;;1.58;;
23496;SDS011;11925;48.122;11.560;2024-03-23T05:54:29;3.63;;;1.40;;
23496;SDS011;11925;48.122;11.560;2024-03-23T05:56:56;3.80;;;1.40;;
23496;SDS011;11925;48.122;11.560;2024-03-23T05:59:23;2.47;;;1.30;;
23496;SDS011;11925;48.122;11.560;2024-03-23T06:01:52;2.00;;;1.30;;
23496;SDS011;11925;48.122;11.560;2024-03-23T06:04:19;2.67;;;1.75;;
23496;SDS011;11925;48.122;11.560;2024-03-23T06:06:48;2.05;;;1.40;;
23496;SDS011;11925;48.122;11.560;2024-03-23T06:09:16;2.47;;;1.63;;
23496;SDS011;11925;48.122;11.560;2024-03-23T06:11:45;3.13;;;1.48;;
23496;SDS011;11925;48.122;11.560;2024-03-23T06:14:11;2.30;;;1.40;;
23496;SDS011;11925;48.122;11.560;2024-03-23T06:16:39;2.20;;;1.50;;
23496;SDS011;11925;48.122;11.560;2024-03-23T06:19:07;3.10;;;1.60;;
23496;SDS011;11925;48.122;11.560;2024-03-23T06:21:35;1.80;;;1.40;;
23496;SDS011;11925;48.122;11.560;2024-03-23T06:24:02;1.77;;;1.45;;
23496;SDS011;11925;48.122;11.560;2024-03-23T06:26:31;1.65;;;1.30;;
23496;SDS011;11925;48.122;11.560;2024-03-23T06:28:58;2.28;;;1.20;;
23496;SDS011;11925;48.122;11.560;2024-03-23T06:31:26;2.78;;;1.50;;
23496;SDS011;11925;48.122;11.560;2024-03-23T06:33:54;2.15;;;1.27;;
23496;SDS011;11925;48.122;11.560;2024-03-23T06:36:22;2.33;;;1.30;;
23496;SDS011;11925;48.122;11.560;2024-03-23T06:38:49;2.72;;;1.48;;
23496;SDS011;11925;48.122;11.560;2024-03-23T06:41:18;2.13;;;1.40;;
23496;SDS011;11925;48.122;11.560;2024-03-23T06:43:47;3.08;;;1.33;;
23496;SDS011;11925;48.122;11.560;2024-03-23T06:46:14;3.13;;;1.38;;
23496;SDS011;11925;48.122;11.560;2024-03-23T06:48:41;2.90;;;1.58;;
23496;SDS011;11925;48.122;11.560;2024-03-23T06:51:09;2.03;;;1.20;;
23496;SDS011;11925;48.122;11.560;2024-03-23T06:53:36;2.65;;;1.30;;
23496;SDS011;11925;48.122;11.560;2024-03-23T06:56:04;2.40;;;1.40;;
23496;SDS011;11925;48.122;11.560;2024-03-23T06:58:31;2.70;;;1.55;;
23496;SDS011;11925;48.122;11.560;2024-03-23T07:01:00;2.60;;;1.50;;
23496;SDS011;11925;48.122;11.560;2024-03-23T07:03:27;2.33;;;1.40;;
23496;SDS011;11925;48.122;11.560;2024-03-23T07:05:57;3.03;;;1.65;;
23496;SDS011;11925;48.122;11.560;2024-03-23T07:08:24;3.65;;;1.90;;
23496;SDS011;11925;48.122;11.560;2024-03-23T07:10:52;4.25;;;2.45;;
23496;SDS011;11925;48.122;11.560;2024-03-23T07:13:19;5.00;;;2.05;;
23496;SDS011;11925;48.122;11.560;2024-03-23T07:15:51;3.60;;;1.80;;
23496;SDS011;11925;48.122;11.560;2024-03-23T07:18:19;2.45;;;1.77;;
23496;SDS011;11925;48.122;11.560;2024-03-23T07:20:52;3.38;;;1.75;;
23496;SDS011;11925;48.122;11.560;2024-03-23T07:25:55;1.98;;;1.38;;
23496;SDS011;11925;48.122;11.560;2024-03-23T07:28:22;2.47;;;1.60;;
23496;SDS011;11925;48.122;11.560;2024-03-23T07:31:00;3.33;;;1.20;;
23496;SDS011;11925;48.122;11.560;2024-03-23T07:33:28;1.70;;;1.10;;
23496;SDS011;11925;48.122;11.560;2024-03-23T07:35:56;3.05;;;1.58;;
23496;SDS011;11925;48.122;11.560;2024-03-23T07:38:25;2.70;;;1.15;;
23496;SDS011;11925;48.122;11.560;2024-03-23T07:41:02;3.13;;;1.10;;
23496;SDS011;11925;48.122;11.560;2024-03-23T07:43:29;2.10;;;1.50;;
23496;SDS011;11925;48.122;11.560;2024-03-23T07:45:56;3.47;;;1.30;;
23496;SDS011;11925;48.122;11.560;2024-03-23T07:48:23;2.90;;;1.33;;
23496;SDS011;11925;48.122;11.560;2024-03-23T07:51:03;2.72;;;1.40;;
23496;SDS011;11925;48.122;11.560;2024-03-23T07:53:30;3.15;;;1.30;;
23496;SDS011;11925;48.122;11.560;2024-03-23T07:55:58;3.75;;;1.67;;
23496;SDS011;11925;48.122;11.560;2024-03-23T07:58:25;5.20;;;1.38;;
23496;SDS011;11925;48.122;11.560;2024-03-23T08:00:54;2.95;;;1.50;;
23496;SDS011;11925;48.122;11.560;2024-03-23T08:03:21;3.55;;;1.45;;
23496;SDS011;11925;48.122;11.560;2024-03-23T08:05:48;3.35;;;1.80;;
23496;SDS011;11925;48.122;11.560;2024-03-23T08:08:16;4.75;;;1.45;;
23496;SDS011;11925;48.122;11.560;2024-03-23T08:10:48;3.92;;;1.90;;
23496;SDS011;11925;48.122;11.560;2024-03-23T08:13:15;4.82;;;1.63;;
23496;SDS011;11925;48.122;11.560;2024-03-23T08:15:42;3.08;;;1.58;;
23496;SDS011;11925;48.122;11.560;2024-03-23T08:18:09;2.50;;;1.48;;
23496;SDS011;11925;48.122;11.560;2024-03-23T08:20:37;8.50;;;1.80;;
23496;SDS011;11925;48.122;11.560;2024-03-23T08:23:04;2.55;;;1.50;;
23496;SDS011;11925;48.122;11.560;2024-03-23T08:25:34;4.15;;;1.45;;
23496;SDS011;11925;48.122;11.560;2024-03-23T08:28:01;4.47;;;1.58;;
23496;SDS011;11925;48.122;11.560;2024-03-23T08:30:29;3.10;;;1.52;;
23496;SDS011;11925;48.122;11.560;2024-03-23T08:32:55;5.38;;;1.67;;
23496;SDS011;11925;48.122;11.560;2024-03-23T08:35:23;4.10;;;1.50;;
23496;SDS011;11925;48.122;11.560;2024-03-23T08:37:50;3.63;;;1.23;;
23496;SDS011;11925;48.122;11.560;2024-03-23T08:40:18;1.88;;;1.13;;
23496;SDS011;11925;48.122;11.560;2024-03-23T08:42:46;2.92;;;1.17;;
23496;SDS011;11925;48.122;11.560;2024-03-23T08:45:14;3.50;;;1.33;;
23496;SDS011;11925;48.122;11.560;2024-03-23T08:47:41;2.28;;;1.70;;
23496;SDS011;11925;48.122;11.560;2024-03-23T08:50:09;2.33;;;1.13;;
23496;SDS011;11925;48.122;11.560;2024-03-23T08:52:36;3.17;;;1.52;;
23496;SDS011;11925;48.122;11.560;2024-03-23T08:55:04;3.45;;;1.25;;
23496;SDS011;11925;48.122;11.560;2024-03-23T08:57:31;2.35;;;1.17;;
23496;SDS011;11925;48.122;11.560;2024-03-23T09:00:00;3.38;;;1.50;;
23496;SDS011;11925;48.122;11.560;2024-03-23T09:02:27;2.63;;;1.10;;
23496;SDS011;11925;48.122;11.560;2024-03-23T09:04:55;1.77;;;1.10;;
23496;SDS011;11925;48.122;11.560;2024-03-23T09:07:22;2.70;;;1.17;;
23496;SDS011;11925;48.122;11.560;2024-03-23T09:09:49;3.60;;;1.52;;
23496;SDS011;11925;48.122;11.560;2024-03-23T09:12:16;2.85;;;1.60;;
23496;SDS011;11925;48.122;11.560;2024-03-23T09:14:44;5.72;;;1.60;;
23496;SDS011;11925;48.122;11.560;2024-03-23T09:17:12;1.85;;;1.38;;
23496;SDS011;11925;48.122;11.560;2024-03-23T09:19:40;3.38;;;1.50;;
23496;SDS011;11925;48.122;11.560;2024-03-23T09:22:07;3.53;;;1.70;;
23496;SDS011;11925;48.122;11.560;2024-03-23T09:24:35;2.53;;;1.38;;
23496;SDS011;11925;48.122;11.560;2024-03-23T09:27:02;4.70;;;1.77;;
23496;SDS011;11925;48.122;11.560;2024-03-23T09:29:30;2.65;;;1.50;;
23496;SDS011;11925;48.122;11.560;2024-03-23T09:31:57;2.53;;;1.45;;
23496;SDS011;11925;48.122;11.560;2024-03-23T09:34:26;1.80;;;1.42;;
23496;SDS011;11925;48.122;11.560;2024-03-23T09:36:53;2.78;;;1.20;;
23496;SDS011;11925;48.122;11.560;2024-03-23T09:39:21;1.90;;;1.20;;
23496;SDS011;11925;48.122;11.560;2024-03-23T09:41:48;2.83;;;1.00;;
23496;SDS011;11925;48.122;11.560;2024-03-23T09:44:16;1.52;;;0.80;;
23496;SDS011;11925;48.122;11.560;2024-03-23T09:46:43;1.27;;;0.70;;
23496;SDS011;11925;48.122;11.560;2024-03-23T09:49:10;2.28;;;0.63;;
23496;SDS011;11925;48.122;11.560;2024-03-23T09:51:39;1.02;;;0.50;;
23496;SDS011;11925;48.122;11.560;2024-03-23T09:54:06;2.17;;;0.60;;
23496;SDS011;11925;48.122;11.560;2024-03-23T09:56:33;1.15;;;0.50;;
23496;SDS011;11925;48.122;11.560;2024-03-23T09:59:01;1.23;;;0.80;;
23496;SDS011;11925;48.122;11.560;2024-03-23T10:01:29;1.15;;;0.63;;
23496;SDS011;11925;48.122;11.560;2024-03-23T10:03:57;3.83;;;0.50;;
23496;SDS011;11925;48.122;11.560;2024-03-23T10:06:24;2.03;;;0.40;;
23496;SDS011;11925;48.122;11.560;2024-03-23T10:08:53;2.55;;;0.50;;
23496;SDS011;11925;48.122;11.560;2024-03-23T10:11:20;1.08;;;0.60;;
23496;SDS011;11925;48.122;11.560;2024-03-23T10:13:48;3.22;;;0.70;;
23496;SDS011;11925;48.122;11.560;2024-03-23T10:16:22;2.88;;;0.90;;
23496;SDS011;11925;48.122;11.560;2024-03-23T10:18:52;1.08;;;0.60;;
23496;SDS011;11925;48.122;11.560;2024-03-23T10:21:19;2.75;;;0.80;;
23496;SDS011;11925;48.122;11.560;2024-03-23T10:23:47;1.92;;;0.50;;
23496;SDS011;11925;48.122;11.560;2024-03-23T10:26:18;1.25;;;0.60;;
23496;SDS011;11925;48.122;11.560;2024-03-23T10:28:56;1.33;;;0.50;;
23496;SDS011;11925;48.122;11.560;2024-03-23T10:31:26;1.30;;;0.60;;
23496;SDS011;11925;48.122;11.560;2024-03-23T10:33:54;1.13;;;0.50;;
23496;SDS011;11925;48.122;11.560;2024-03-23T10:36:21;1.15;;;0.60;;
23496;SDS011;11925;48.122;11.560;2024-03-23T10:38:49;0.57;;;0.40;;
23496;SDS011;11925;48.122;11.560;2024-03-23T10:41:18;1.88;;;0.50;;
23496;SDS011;11925;48.122;11.560;2024-03-23T10:43:47;1.58;;;0.45;;
23496;SDS011;11925;48.122;11.560;2024-03-23T10:46:14;2.13;;;0.60;;
23496;SDS011;11925;48.122;11.560;2024-03-23T10:48:42;1.38;;;0.40;;
23496;SDS011;11925;48.122;11.560;2024-03-23T10:51:10;0.63;;;0.40;;
23496;SDS011;11925;48.122;11.560;2024-03-23T10:53:38;0.63;;;0.40;;
23496;SDS011;11925;48.122;11.560;2024-03-23T10:56:05;1.02;;;0.30;;
23496;SDS011;11925;48.122;11.560;2024-03-23T10:58:36;1.25;;;0.30;;
23496;SDS011;11925;48.122;11.560;2024-03-23T11:01:04;0.65;;;0.40;;
23496;SDS011;11925;48.122;11.560;2024-03-23T11:03:32;4.35;;;1.33;;
23496;SDS011;11925;48.122;11.560;2024-03-23T11:06:00;0.73;;;0.32;;
23496;SDS011;11925;48.122;11.560;2024-03-23T11:08:32;0.70;;;0.30;;
23496;SDS011;11925;48.122;11.560;2024-03-23T11:11:12;0.88;;;0.35;;
23496;SDS011;11925;48.122;11.560;2024-03-23T11:13:42;0.75;;;0.40;;
23496;SDS011;11925;48.122;11.560;2024-03-23T11:16:15;0.90;;;0.30;;
23496;SDS011;11925;48.122;11.560;2024-03-23T11:18:45;0.68;;;0.38;;
23496;SDS011;11925;48.122;11.560;2024-03-23T11:21:13;0.60;;;0.40;;
23496;SDS011;11925;48.122;11.560;2024-03-23T11:24:13;1.88;;;0.50;;
23496;SDS011;11925;48.122;11.560;2024-03-23T11:26:40;1.02;;;0.43;;
23496;SDS011;11925;48.122;11.560;2024-03-23T11:29:10;1.10;;;0.40;;
23496;SDS011;11925;48.122;11.560;2024-03-23T11:31:37;1.42;;;0.40;;
23496;SDS011;11925;48.122;11.560;2024-03-23T11:34:06;1.48;;;0.50;;
23496;SDS011;11925;48.122;11.560;2024-03-23T11:36:33;2.25;;;0.85;;
23496;SDS011;11925;48.122;11.560;2024-03-23T11:39:11;0.75;;;0.50;;
23496;SDS011;11925;48.122;11.560;2024-03-23T11:41:45;0.95;;;0.40;;
23496;SDS011;11925;48.122;11.560;2024-03-23T11:44:18;1.85;;;0.43;;
23496;SDS011;11925;48.122;11.560;2024-03-23T11:46:45;1.40;;;0.80;;
23496;SDS011;11925;48.122;11.560;2024-03-23T11:49:20;1.80;;;0.75;;
23496;SDS011;11925;48.122;11.560;2024-03-23T11:51:47;1.20;;;0.60;;
23496;SDS011;11925;48.122;11.560;2024-03-23T11:54:15;0.82;;;0.50;;
23496;SDS011;11925;48.122;11.560;2024-03-23T11:56:53;1.67;;;0.57;;
23496;SDS011;11925;48.122;11.560;2024-03-23T11:59:35;1.33;;;0.70;;
23496;SDS011;11925;48.122;11.560;2024-03-23T12:02:05;0.82;;;0.55;;
23496;SDS011;11925;48.122;11.560;2024-03-23T12:04:34;1.38;;;0.50;;
23496;SDS011;11925;48.122;11.560;2024-03-23T12:07:14;1.90;;;0.70;;
23496;SDS011;11925;48.122;11.560;2024-03-23T12:09:44;1.15;;;0.50;;
23496;SDS011;11925;48.122;11.560;2024-03-23T12:12:13;1.00;;;0.50;;
23496;SDS011;11925;48.122;11.560;2024-03-23T12:14:43;2.55;;;0.73;;
23496;SDS011;11925;48.122;11.560;2024-03-23T12:17:11;2.15;;;0.70;;
23496;SDS011;11925;48.122;11.560;2024-03-23T12:19:39;1.52;;;0.70;;
23496;SDS011;11925;48.122;11.560;2024-03-23T12:22:07;1.92;;;0.73;;
23496;SDS011;11925;48.122;11.560;2024-03-23T12:24:35;1.67;;;0.60;;
23496;SDS011;11925;48.122;11.560;2024-03-23T12:27:03;1.83;;;0.88;;
23496;SDS011;11925;48.122;11.560;2024-03-23T12:29:31;1.17;;;0.80;;
23496;SDS011;11925;48.122;11.560;2024-03-23T12:32:00;3.60;;;1.50;;
23496;SDS011;11925;48.122;11.560;2024-03-23T12:34:28;2.15;;;0.90;;
23496;SDS011;11925;48.122;11.560;2024-03-23T12:36:56;2.35;;;1.00;;
23496;SDS011;11925;48.122;11.560;2024-03-23T12:39:24;2.95;;;1.10;;
23496;SDS011;11925;48.122;11.560;2024-03-23T12:41:51;2.33;;;1.00;;
23496;SDS011;11925;48.122;11.560;2024-03-23T12:44:18;1.92;;;0.93;;
23496;SDS011;11925;48.122;11.560;2024-03-23T12:46:45;2.10;;;0.98;;
23496;SDS011;11925;48.122;11.560;2024-03-23T12:49:15;2.58;;;1.10;;
23496;SDS011;11925;48.122;11.560;2024-03-23T12:51:46;3.78;;;0.98;;
23496;SDS011;11925;48.122;11.560;2024-03-23T12:54:18;3.13;;;0.93;;
23496;SDS011;11925;48.122;11.560;2024-03-23T12:56:46;3.78;;;1.40;;
23496;SDS011;11925;48.122;11.560;2024-03-23T12:59:13;2.42;;;1.25;;
23496;SDS011;11925;48.122;11.560;2024-03-23T13:01:42;3.03;;;1.25;;
23496;SDS011;11925;48.122;11.560;2024-03-23T13:04:09;4.43;;;1.30;;
23496;SDS011;11925;48.122;11.560;2024-03-23T13:06:39;2.47;;;1.10;;
23496;SDS011;11925;48.122;11.560;2024-03-23T13:09:05;5.72;;;1.65;;
23496;SDS011;11925;48.122;11.560;2024-03-23T13:11:34;4.35;;;1.45;;
23496;SDS011;11925;48.122;11.560;2024-03-23T13:14:01;4.80;;;1.65;;
23496;SDS011;11925;48.122;11.560;2024-03-23T13:16:29;4.93;;;1.63;;
23496;SDS011;11925;48.122;11.560;2024-03-23T13:18:56;4.38;;;1.30;;
23496;SDS011;11925;48.122;11.560;2024-03-23T13:21:24;2.28;;;1.10;;
23496;SDS011;11925;48.122;11.560;2024-03-23T13:23:53;6.43;;;1.40;;
23496;SDS011;11925;48.122;11.560;2024-03-23T13:26:21;2.78;;;1.27;;
23496;SDS011;11925;48.122;11.560;2024-03-23T13:28:47;5.20;;;1.60;;
23496;SDS011;11925;48.122;11.560;2024-03-23T13:31:15;5.32;;;1.45;;
23496;SDS011;11925;48.122;11.560;2024-03-23T13:33:42;3.30;;;1.40;;
23496;SDS011;11925;48.122;11.560;2024-03-23T13:36:10;3.97;;;1.20;;
23496;SDS011;11925;48.122;11.560;2024-03-23T13:38:37;3.83;;;1.63;;
23496;SDS011;11925;48.122;11.560;2024-03-23T13:41:06;4.50;;;1.38;;
23496;SDS011;11925;48.122;11.560;2024-03-23T13:43:34;3.72;;;1.35;;
23496;SDS011;11925;48.122;11.560;2024-03-23T13:46:02;2.05;;;0.90;;
23496;SDS011;11925;48.122;11.560;2024-03-23T13:48:30;3.83;;;1.35;;
23496;SDS011;11925;48.122;11.560;2024-03-23T13:50:57;3.85;;;1.50;;
23496;SDS011;11925;48.122;11.560;2024-03-23T13:53:25;6.50;;;1.40;;
23496;SDS011;11925;48.122;11.560;2024-03-23T13:55:52;14.90;;;8.02;;
23496;SDS011;11925;48.122;11.560;2024-03-23T13:58:21;126.85;;;66.72;;
23496;SDS011;11925;48.122;11.560;2024-03-23T14:00:51;96.07;;;49.63;;
23496;SDS011;11925;48.122;11.560;2024-03-23T14:03:19;94.85;;;45.13;;
23496;SDS011;11925;48.122;11.560;2024-03-23T14:05:45;46.85;;;23.60;;
23496;SDS011;11925;48.122;11.560;2024-03-23T14:08:13;96.70;;;44.13;;
23496;SDS011;11925;48.122;11.560;2024-03-23T14:10:41;45.00;;;23.02;;
23496;SDS011;11925;48.122;11.560;2024-03-23T14:13:09;50.42;;;25.77;;
23496;SDS011;11925;48.122;11.560;2024-03-23T14:15:37;30.42;;;14.60;;
23496;SDS011;11925;48.122;11.560;2024-03-23T14:18:05;24.55;;;11.75;;
23496;SDS011;11925;48.122;11.560;2024-03-23T14:20:32;97.35;;;49.72;;
23496;SDS011;11925;48.122;11.560;2024-03-23T14:23:01;99.68;;;50.60;;
23496;SDS011;11925;48.122;11.560;2024-03-23T14:25:28;109.13;;;57.40;;
23496;SDS011;11925;48.122;11.560;2024-03-23T14:27:56;59.47;;;34.05;;
23496;SDS011;11925;48.122;11.560;2024-03-23T14:30:23;40.05;;;21.13;;
23496;SDS011;11925;48.122;11.560;2024-03-23T14:32:53;32.92;;;18.85;;
23496;SDS011;11925;48.122;11.560;2024-03-23T14:35:19;24.67;;;12.70;;
23496;SDS011;11925;48.122;11.560;2024-03-23T14:37:47;90.53;;;47.72;;
23496;SDS011;11925;48.122;11.560;2024-03-23T14:40:14;106.63;;;62.92;;
23496;SDS011;11925;48.122;11.560;2024-03-23T14:42:42;78.38;;;44.75;;
23496;SDS011;11925;48.122;11.560;2024-03-23T14:45:09;82.78;;;45.95;;
23496;SDS011;11925;48.122;11.560;2024-03-23T14:47:42;127.50;;;62.67;;
23496;SDS011;11925;48.122;11.560;2024-03-23T14:50:12;67.38;;;34.95;;
23496;SDS011;11925;48.122;11.560;2024-03-23T14:52:41;54.67;;;26.30;;
23496;SDS011;11925;48.122;11.560;2024-03-23T14:55:08;21.33;;;11.10;;
23496;SDS011;11925;48.122;11.560;2024-03-23T14:57:36;16.55;;;8.10;;
23496;SDS011;11925;48.122;11.560;2024-03-23T15:00:05;13.57;;;6.32;;
23496;SDS011;11925;48.122;11.560;2024-03-23T15:02:33;9.45;;;4.40;;
23496;SDS011;11925;48.122;11.560;2024-03-23T15:05:00;10.10;;;5.15;;
23496;SDS011;11925;48.122;11.560;2024-03-23T15:07:31;24.58;;;15.10;;
23496;SDS011;11925;48.122;11.560;2024-03-23T15:09:58;62.17;;;32.15;;
23496;SDS011;11925;48.122;11.560;2024-03-23T15:12:26;106.68;;;49.90;;
23496;SDS011;11925;48.122;11.560;2024-03-23T15:14:52;75.22;;;38.45;;
23496;SDS011;11925;48.122;11.560;2024-03-23T15:17:21;63.10;;;32.17;;
23496;SDS011;11925;48.122;11.560;2024-03-23T15:19:48;54.08;;;26.60;;
23496;SDS011;11925;48.122;11.560;2024-03-23T15:22:16;43.97;;;21.85;;
23496;SDS011;11925;48.122;11.560;2024-03-23T15:24:44;52.90;;;27.23;;
23496;SDS011;11925;48.122;11.560;2024-03-23T15:27:19;98.78;;;51.58;;
23496;SDS011;11925;48.122;11.560;2024-03-23T15:29:47;75.85;;;40.72;;
23496;SDS011;11925;48.122;11.560;2024-03-23T15:32:14;110.15;;;57.30;;